Details for Flybe at EGHI




Go Back


Latest METAR
Local Time

EGHI 240720Z 03007KT 350V060 9000 BKN012 12/10 Q1020

24/05/2018, 08:49:01

Description
Results
Flybe Logo
Number of Pilots based at EGHI
1 Pilots Based here
Number of Flybe Flights Departed from EGHI
18 Flights Departed
Number of Flybe Flights Arrived at EGHI
17 Flights Arrived
Number of Flybe Schedules Departing from EGHI
66 Schedules
Number of Flybe Schedules Arriving at EGHI
64 Schedules
Number of Flybe Schedules Departing from EGHI availible today
40 Schedules Today
Number of Flybe Schedules Arriving at EGHI availible today
40 Schedules Today
Average Landing Rate at EGHI
-315 fpm
Flybe Average Landing Rate at EGHI
-275 fpm
Total Fuel Purchased at EGHI by Flybe
18,966.33 kgs / 41,813.17 lbs

Pilots Based at EGHI


Pilot ID
Pilot Name
Pilot Rank
No. of Flights
No. of Flying Hours
Sam Berry
113
249.16
Content